createdAt,value
2018-05-01T00:00:57.969Z,99496
2018-05-01T00:03:26.414Z,99497
2018-05-01T00:05:54.735Z,99494
2018-05-01T00:08:23.648Z,99509
2018-05-01T00:10:51.921Z,99506
2018-05-01T00:13:20.200Z,99513
2018-05-01T00:15:48.549Z,99503
2018-05-01T00:18:16.865Z,99515
2018-05-01T00:20:45.176Z,99515
2018-05-01T00:23:14.211Z,99518
2018-05-01T00:25:42.522Z,99504
2018-05-01T00:28:10.829Z,99527
2018-05-01T00:30:39.853Z,99527
2018-05-01T00:33:08.096Z,99519
2018-05-01T00:35:38.305Z,99508
2018-05-01T00:38:06.636Z,99531
2018-05-01T01:10:12.760Z,99576
2018-05-01T01:12:42.292Z,99571
2018-05-01T01:15:10.639Z,99571
2018-05-01T01:17:38.976Z,99570
2018-05-01T01:20:07.260Z,99577
2018-05-01T01:22:35.678Z,99577
2018-05-01T01:25:04.749Z,99586
2018-05-01T01:27:33.039Z,99573
2018-05-01T01:30:02.099Z,99604
2018-05-01T01:32:30.509Z,99590
2018-05-01T01:34:58.708Z,99606
2018-05-01T01:37:26.347Z,99597
2018-05-01T01:39:54.599Z,99598
2018-05-01T01:42:22.140Z,99603
2018-05-01T01:44:49.554Z,99598
2018-05-01T01:47:17.001Z,99604
2018-05-01T01:49:44.705Z,99605
2018-05-01T01:52:12.390Z,99618
2018-05-01T01:54:39.856Z,99596
2018-05-01T01:57:07.468Z,99608
2018-05-01T01:59:36.066Z,99618
2018-05-01T02:02:03.531Z,99621
2018-05-01T02:04:31.004Z,99648
2018-05-01T02:06:58.487Z,99621
2018-05-01T02:09:26.685Z,99623
2018-05-01T02:11:54.335Z,99624
2018-05-01T02:14:21.786Z,99668
2018-05-01T02:16:50.032Z,99627
2018-05-01T02:19:17.464Z,99639
2018-05-01T02:21:45.081Z,99638
2018-05-01T02:24:13.284Z,99640
2018-05-01T02:26:40.765Z,99646
2018-05-01T02:29:08.288Z,99646
2018-05-01T02:31:35.738Z,99640
2018-05-01T02:34:03.286Z,99636
2018-05-01T02:36:31.846Z,99654
2018-05-01T02:39:00.151Z,99646
2018-05-01T02:41:28.542Z,99647
2018-05-01T02:43:55.978Z,99642
2018-05-01T02:46:25.336Z,99657
2018-05-01T02:48:52.806Z,99674
2018-05-01T02:51:20.429Z,99675
2018-05-01T02:53:47.900Z,99664
2018-05-01T02:56:15.360Z,99676
2018-05-01T02:58:43.066Z,99668
2018-05-01T03:01:11.420Z,99684
2018-05-01T03:03:38.886Z,99680
2018-05-01T03:06:06.385Z,99687
2018-05-01T03:08:33.869Z,99691
2018-05-01T03:11:01.462Z,99690
2018-05-01T03:13:28.912Z,99680
2018-05-01T03:15:56.388Z,99690
2018-05-01T03:18:23.869Z,99696
2018-05-01T03:20:51.531Z,99685
2018-05-01T03:23:18.956Z,99698
2018-05-01T03:25:46.416Z,99678
2018-05-01T03:28:14.015Z,99682
2018-05-01T03:30:42.820Z,99706
2018-05-01T03:33:10.255Z,99706
2018-05-01T03:35:37.741Z,99688
2018-05-01T03:38:05.316Z,99708
2018-05-01T03:40:32.795Z,99706
2018-05-01T03:43:00.261Z,99713
2018-05-01T03:45:28.471Z,99709
2018-05-01T03:47:55.998Z,99704
2018-05-01T03:50:23.592Z,99713
2018-05-01T03:52:51.399Z,99715
2018-05-01T03:55:18.950Z,99720
2018-05-01T03:57:46.525Z,99724
2018-05-01T04:00:13.994Z,99723
2018-05-01T04:02:42.190Z,99733
2018-05-01T04:05:09.830Z,99729
2018-05-01T04:07:38.110Z,99743
2018-05-01T04:10:06.365Z,99745
2018-05-01T04:12:33.876Z,99742
2018-05-01T04:15:01.321Z,99745
2018-05-01T04:17:28.795Z,99760
2018-05-01T04:19:56.241Z,99759
2018-05-01T04:22:23.696Z,99748
2018-05-01T04:24:51.492Z,99773
2018-05-01T04:27:18.950Z,99781
2018-05-01T04:29:46.494Z,99791
2018-05-01T04:32:13.969Z,99781
2018-05-01T04:34:41.424Z,99781
2018-05-01T04:37:08.902Z,99785
2018-05-01T04:39:36.396Z,99793
2018-05-01T04:42:03.865Z,99807
2018-05-01T04:44:31.410Z,99815
2018-05-01T04:46:58.852Z,99831
2018-05-01T04:49:27.124Z,99818
2018-05-01T04:51:54.575Z,99830
2018-05-01T04:54:22.099Z,99838
2018-05-01T04:56:49.639Z,99840
2018-05-01T04:59:17.117Z,99832
2018-05-01T05:01:44.586Z,99838
2018-05-01T05:04:12.019Z,99830
2018-05-01T05:06:39.486Z,99842
2018-05-01T05:09:07.072Z,99845
2018-05-01T05:11:34.566Z,99849
2018-05-01T05:14:01.986Z,99851
2018-05-01T05:16:29.471Z,99859
2018-05-01T05:18:58.146Z,99852
2018-05-01T05:21:26.385Z,99864
2018-05-01T05:23:53.801Z,99876
2018-05-01T05:26:21.440Z,99873
2018-05-01T05:28:48.909Z,99879
2018-05-01T05:31:16.385Z,99876
2018-05-01T05:33:43.842Z,99875
2018-05-01T05:36:11.312Z,99908
2018-05-01T05:38:38.785Z,99887
2018-05-01T05:41:06.835Z,99908
2018-05-01T05:43:34.265Z,99890
2018-05-01T05:46:01.799Z,99899
2018-05-01T05:48:30.284Z,99916
2018-05-01T05:50:58.529Z,99913
2018-05-01T05:53:25.954Z,99907
2018-05-01T05:55:53.464Z,99929
2018-05-01T05:58:21.124Z,99923
2018-05-01T06:00:48.607Z,99930
2018-05-01T06:03:16.910Z,99936
2018-05-01T06:05:44.408Z,99939
2018-05-01T06:08:11.979Z,99926
2018-05-01T06:10:39.565Z,99924
2018-05-01T06:13:07.016Z,99953
2018-05-01T06:15:34.497Z,99929
2018-05-01T06:18:02.211Z,99956
2018-05-01T06:20:29.670Z,99960
2018-05-01T06:22:57.938Z,99950
2018-05-01T06:25:26.157Z,99967
2018-05-01T06:27:53.612Z,99969
2018-05-01T06:30:21.156Z,99984
2018-05-01T06:32:49.440Z,99992
2018-05-01T06:35:17.070Z,99964
2018-05-01T06:37:44.534Z,100000
2018-05-01T06:40:12.782Z,100006
2018-05-01T06:42:40.290Z,100013
2018-05-01T06:45:07.773Z,100005
2018-05-01T06:47:35.270Z,100009
2018-05-01T06:50:03.651Z,100019
2018-05-01T06:52:31.091Z,100015
2018-05-01T06:54:58.541Z,100025
2018-05-01T06:57:26.040Z,100031
2018-05-01T06:59:54.531Z,100032
2018-05-01T07:02:22.031Z,100037
2018-05-01T07:04:49.460Z,100041
2018-05-01T07:07:16.932Z,100055
2018-05-01T07:09:44.415Z,100050
2018-05-01T07:12:11.958Z,100059
2018-05-01T07:14:39.505Z,100061
2018-05-01T07:17:06.991Z,100085
2018-05-01T07:19:34.447Z,100061
2018-05-01T07:22:02.058Z,100077
2018-05-01T07:24:29.558Z,100078
2018-05-01T07:26:57.020Z,100094
2018-05-01T07:29:24.694Z,100087
2018-05-01T07:31:52.164Z,100089
2018-05-01T07:34:19.637Z,100088
2018-05-01T07:36:47.902Z,100094
2018-05-01T07:39:16.314Z,100088
2018-05-01T07:41:44.617Z,100094
2018-05-01T07:44:12.295Z,100094
2018-05-01T07:46:40.684Z,100092
2018-05-01T07:49:09.082Z,100101
2018-05-01T07:51:36.514Z,100098
2018-05-01T07:54:04.006Z,100092
2018-05-01T07:56:32.265Z,100105
2018-05-01T07:59:00.990Z,100101
2018-05-01T08:01:28.460Z,100097
2018-05-01T08:03:56.480Z,100109
2018-05-01T08:06:24.715Z,100104
2018-05-01T08:08:52.245Z,100115
2018-05-01T08:11:19.793Z,100124
2018-05-01T08:13:47.302Z,100125
2018-05-01T08:16:14.828Z,100121
2018-05-01T08:18:42.406Z,100127
2018-05-01T08:21:09.920Z,100126
2018-05-01T08:23:38.415Z,100138
2018-05-01T08:26:05.934Z,100136
2018-05-01T08:28:33.587Z,100139
2018-05-01T08:31:01.123Z,100140
2018-05-01T08:33:28.638Z,100143
2018-05-01T08:35:56.944Z,100157
2018-05-01T08:38:24.605Z,100150
2018-05-01T08:40:53.891Z,100158
2018-05-01T08:43:21.624Z,100155
2018-05-01T08:45:49.936Z,100170
2018-05-01T08:48:17.706Z,100158
2018-05-01T08:50:45.407Z,100181
2018-05-01T08:53:12.924Z,100170
2018-05-01T08:55:40.678Z,100165
2018-05-01T08:58:08.236Z,100184
2018-05-01T09:00:35.704Z,100171
2018-05-01T09:03:03.793Z,100185
2018-05-01T09:05:31.580Z,100183
2018-05-01T09:07:59.101Z,100215
2018-05-01T09:10:26.668Z,100198
2018-05-01T09:12:54.144Z,100192
2018-05-01T09:15:21.927Z,100191
2018-05-01T09:17:49.606Z,100192
2018-05-01T09:20:17.928Z,100205
2018-05-01T09:22:45.563Z,100215
2018-05-01T09:25:14.100Z,100210
2018-05-01T09:27:41.807Z,100208
2018-05-01T09:30:09.345Z,100227
2018-05-01T09:32:36.847Z,100214
2018-05-01T09:35:04.372Z,100209
2018-05-01T09:37:32.602Z,100208
2018-05-01T09:40:00.066Z,100209
2018-05-01T09:42:27.823Z,100214
2018-05-01T09:44:55.439Z,100228
2018-05-01T09:47:23.089Z,100227
2018-05-01T09:49:50.583Z,100234
2018-05-01T09:52:18.954Z,100218
2018-05-01T09:54:47.257Z,100241
2018-05-01T09:57:15.828Z,100258
2018-05-01T09:59:44.451Z,100234
2018-05-01T10:02:12.942Z,100236
2018-05-01T10:04:42.073Z,100248
2018-05-01T10:07:10.481Z,100256
2018-05-01T10:09:38.851Z,100242
2018-05-01T10:12:07.338Z,100240
2018-05-01T10:14:36.828Z,100243
2018-05-01T10:17:06.121Z,100241
2018-05-01T10:19:34.445Z,100245
2018-05-01T10:22:03.165Z,100251
2018-05-01T10:24:31.728Z,100228
2018-05-01T10:27:00.268Z,100260
2018-05-01T10:29:28.719Z,100259
2018-05-01T10:31:57.186Z,100258
2018-05-01T10:34:26.340Z,100255
2018-05-01T10:36:54.742Z,100259
2018-05-01T10:39:23.322Z,100255
2018-05-01T10:41:51.954Z,100252
2018-05-01T10:44:20.578Z,100253
2018-05-01T10:46:48.872Z,100247
2018-05-01T10:49:17.244Z,100252
2018-05-01T10:51:45.550Z,100265
2018-05-01T10:54:14.945Z,100274
2018-05-01T10:56:44.078Z,100289
2018-05-01T10:59:12.439Z,100269
2018-05-01T11:01:40.872Z,100277
2018-05-01T11:04:09.346Z,100254
2018-05-01T11:06:37.931Z,100280
2018-05-01T11:09:07.183Z,100292
2018-05-01T11:11:35.641Z,100292
2018-05-01T11:14:04.999Z,100296
2018-05-01T11:16:34.602Z,100289
2018-05-01T11:19:02.914Z,100299
2018-05-01T11:21:32.107Z,100291
2018-05-01T11:24:01.332Z,100296
2018-05-01T11:26:29.689Z,100303
2018-05-01T11:28:58.964Z,100284
2018-05-01T11:31:27.412Z,100301
2018-05-01T11:33:55.851Z,100298
2018-05-01T11:36:25.059Z,100308
2018-05-01T11:38:54.619Z,100300
2018-05-01T11:41:23.124Z,100305
2018-05-01T11:43:51.595Z,100316
2018-05-01T11:46:20.066Z,100316
2018-05-01T11:48:48.495Z,100280
2018-05-01T11:51:18.097Z,100324
2018-05-01T11:53:47.246Z,100328
2018-05-01T11:56:15.633Z,100327
2018-05-01T11:58:43.968Z,100327
2018-05-01T12:01:12.483Z,100325
2018-05-01T12:03:40.806Z,100329
2018-05-01T12:06:10.181Z,100330
2018-05-01T12:08:38.542Z,100329
2018-05-01T12:11:06.932Z,100344
2018-05-01T12:13:35.334Z,100337
2018-05-01T12:16:04.440Z,100335
2018-05-01T12:18:33.663Z,100344
2018-05-01T12:21:02.092Z,100325
2018-05-01T12:23:30.514Z,100331
2018-05-01T12:25:58.941Z,100333
2018-05-01T12:28:27.436Z,100341
2018-05-01T12:30:55.794Z,100332
2018-05-01T12:33:24.186Z,100335
2018-05-01T12:35:52.732Z,100334
2018-05-01T12:38:21.187Z,100333
2018-05-01T12:40:49.570Z,100332
2018-05-01T12:43:17.925Z,100334
2018-05-01T12:45:47.070Z,100327
2018-05-01T12:48:15.736Z,100339
2018-05-01T12:50:44.116Z,100332
2018-05-01T12:53:12.725Z,100337
2018-05-01T12:55:41.078Z,100330
2018-05-01T12:58:09.588Z,100345
2018-05-01T13:00:37.958Z,100343
2018-05-01T13:03:06.388Z,100332
2018-05-01T13:05:35.073Z,100335
2018-05-01T13:08:03.432Z,100331
2018-05-01T13:10:31.739Z,100324
2018-05-01T13:13:00.220Z,100349
2018-05-01T13:15:28.809Z,100332
2018-05-01T13:17:57.311Z,100343
2018-05-01T13:20:25.646Z,100345
2018-05-01T13:22:55.883Z,100336
2018-05-01T13:25:24.285Z,100339
2018-05-01T13:27:52.615Z,100346
2018-05-01T13:30:21.121Z,100349
2018-05-01T13:32:49.586Z,100348
2018-05-01T13:35:18.904Z,100353
2018-05-01T13:37:47.301Z,100355
2018-05-01T13:40:15.871Z,100349
2018-05-01T13:42:44.305Z,100344
2018-05-01T13:45:12.829Z,100360
2018-05-01T13:47:41.239Z,100365
2018-05-01T13:50:09.606Z,100359
2018-05-01T13:52:38.097Z,100356
2018-05-01T13:55:06.609Z,100364
2018-05-01T13:57:35.008Z,100368
2018-05-01T14:00:04.244Z,100381
2018-05-01T14:02:32.650Z,100368
2018-05-01T14:05:01.022Z,100363
2018-05-01T14:07:29.358Z,100372
2018-05-01T14:09:57.692Z,100379
2018-05-01T14:12:26.118Z,100382
2018-05-01T14:14:54.594Z,100374
2018-05-01T14:17:23.006Z,100366
2018-05-01T14:19:51.387Z,100365
2018-05-01T14:22:20.012Z,100377
2018-05-01T14:24:49.276Z,100379
2018-05-01T14:27:17.704Z,100377
2018-05-01T14:29:46.123Z,100370
2018-05-01T14:32:14.579Z,100381
2018-05-01T14:34:43.724Z,100377
2018-05-01T14:37:12.067Z,100377
2018-05-01T14:39:40.569Z,100371
2018-05-01T14:42:09.263Z,100381
2018-05-01T14:44:37.734Z,100382
2018-05-01T14:47:06.393Z,100385
2018-05-01T14:49:34.827Z,100384
2018-05-01T14:52:03.266Z,100388
2018-05-01T14:54:32.736Z,100410
2018-05-01T14:57:01.235Z,100393
2018-05-01T14:59:29.769Z,100393
2018-05-01T15:01:58.141Z,100390
2018-05-01T15:04:26.513Z,100391
2018-05-01T15:06:54.928Z,100381
2018-05-01T15:09:24.080Z,100392
2018-05-01T15:11:52.496Z,100395
2018-05-01T15:14:21.748Z,100392
2018-05-01T15:16:50.069Z,100398
2018-05-01T15:19:19.320Z,100399
2018-05-01T15:21:47.788Z,100399
2018-05-01T15:24:16.380Z,100387
2018-05-01T15:26:45.875Z,100397
2018-05-01T15:29:14.543Z,100406
2018-05-01T15:31:43.682Z,100406
2018-05-01T15:34:12.428Z,100395
2018-05-01T15:36:41.044Z,100398
2018-05-01T15:39:09.461Z,100402
2018-05-01T15:41:37.770Z,100392
2018-05-01T15:44:07.110Z,100403
2018-05-01T15:46:35.579Z,100399
2018-05-01T15:49:04.290Z,100391
2018-05-01T15:51:32.633Z,100392
2018-05-01T15:54:00.994Z,100391
2018-05-01T15:56:29.494Z,100387
2018-05-01T15:58:59.828Z,100385
2018-05-01T16:01:28.229Z,100383
2018-05-01T16:03:56.960Z,100390
2018-05-01T16:06:25.361Z,100393
2018-05-01T16:08:53.736Z,100385
2018-05-01T16:11:22.332Z,100370
2018-05-01T16:13:50.869Z,100380
2018-05-01T16:16:20.665Z,100377
2018-05-01T16:18:50.742Z,100393
2018-05-01T16:21:19.193Z,100395
2018-05-01T16:23:48.469Z,100389
2018-05-01T16:26:17.126Z,100400
2018-05-01T16:28:45.571Z,100392
2018-05-01T16:31:14.138Z,100386
2018-05-01T16:33:43.416Z,100385
2018-05-01T16:36:11.922Z,100393
2018-05-01T16:38:41.078Z,100387
2018-05-01T16:41:09.789Z,100384
2018-05-01T16:43:38.316Z,100371
2018-05-01T16:46:06.892Z,100375
2018-05-01T16:48:35.512Z,100383
2018-05-01T16:51:04.051Z,100391
2018-05-01T16:53:32.512Z,100394
2018-05-01T16:56:01.936Z,100380
2018-05-01T16:58:30.860Z,100379
2018-05-01T17:00:59.710Z,100374
2018-05-01T17:03:28.744Z,100376
2018-05-01T17:05:57.327Z,100376
2018-05-01T17:08:25.974Z,100379
2018-05-01T17:10:54.576Z,100384
2018-05-01T17:13:23.004Z,100388
2018-05-01T17:15:51.703Z,100388
2018-05-01T17:18:21.068Z,100393
2018-05-01T17:20:49.865Z,100400
2018-05-01T17:23:19.602Z,100402
2018-05-01T17:25:48.452Z,100414
2018-05-01T17:28:17.087Z,100411
2018-05-01T17:30:45.730Z,100410
2018-05-01T17:33:14.749Z,100413
2018-05-01T17:35:44.741Z,100404
2018-05-01T17:38:13.666Z,100406
2018-05-01T17:40:42.938Z,100403
2018-05-01T17:43:11.705Z,100409
2018-05-01T17:45:40.198Z,100414
2018-05-01T17:48:08.831Z,100415
2018-05-01T17:50:38.465Z,100422
2018-05-01T17:53:07.139Z,100414
2018-05-01T17:55:35.881Z,100422
2018-05-01T17:58:05.122Z,100431
2018-05-01T18:00:34.177Z,100437
2018-05-01T18:03:03.136Z,100430
2018-05-01T18:05:32.434Z,100441
2018-05-01T18:08:01.618Z,100445
2018-05-01T18:10:30.415Z,100449
2018-05-01T18:12:59.415Z,100451
2018-05-01T18:15:28.092Z,100455
2018-05-01T18:17:57.561Z,100454
2018-05-01T18:20:27.202Z,100456
2018-05-01T18:22:56.280Z,100462
2018-05-01T18:25:25.322Z,100465
2018-05-01T18:27:54.117Z,100466
2018-05-01T18:30:23.205Z,100471
2018-05-01T18:32:52.982Z,100469
2018-05-01T18:35:22.252Z,100468
2018-05-01T18:37:51.598Z,100471
2018-05-01T18:40:20.249Z,100479
2018-05-01T18:42:48.829Z,100478
2018-05-01T18:45:17.343Z,100480
2018-05-01T18:47:45.899Z,100478
2018-05-01T18:50:14.488Z,100485
2018-05-01T18:52:42.995Z,100484
2018-05-01T18:55:11.629Z,100486
2018-05-01T18:57:40.756Z,100487
2018-05-01T19:00:09.232Z,100484
2018-05-01T19:02:37.709Z,100485
2018-05-01T19:05:06.144Z,100488
2018-05-01T19:07:34.780Z,100488
2018-05-01T19:10:03.133Z,100492
2018-05-01T19:12:32.317Z,100492
2018-05-01T19:15:01.494Z,100497
2018-05-01T19:17:29.953Z,100500
2018-05-01T19:19:58.433Z,100505
2018-05-01T19:22:27.164Z,100501
2018-05-01T19:24:56.400Z,100507
2018-05-01T19:27:25.085Z,100512
2018-05-01T19:29:53.671Z,100519
2018-05-01T19:32:22.447Z,100521
2018-05-01T19:34:51.434Z,100524
2018-05-01T19:37:20.005Z,100527
2018-05-01T19:39:49.308Z,100528
2018-05-01T19:42:18.615Z,100522
2018-05-01T19:44:47.214Z,100527
2018-05-01T19:47:15.583Z,100527
2018-05-01T19:49:43.991Z,100536
2018-05-01T19:52:12.385Z,100536
2018-05-01T19:54:40.859Z,100534
2018-05-01T19:57:09.422Z,100536
2018-05-01T19:59:37.948Z,100537
2018-05-01T20:02:06.523Z,100540
2018-05-01T20:04:35.015Z,100547
2018-05-01T20:07:04.529Z,100538
2018-05-01T20:09:34.823Z,100534
2018-05-01T20:12:03.303Z,100536
2018-05-01T20:14:31.711Z,100542
2018-05-01T20:17:00.841Z,100536
2018-05-01T20:19:29.191Z,100533
2018-05-01T20:21:58.448Z,100539
2018-05-01T20:24:26.997Z,100542
2018-05-01T20:26:55.344Z,100540
2018-05-01T20:29:23.740Z,100542
2018-05-01T20:31:52.880Z,100548
2018-05-01T20:34:21.285Z,100546
2018-05-01T20:36:49.730Z,100548
2018-05-01T20:39:18.100Z,100547
2018-05-01T20:41:46.430Z,100553
2018-05-01T20:44:15.801Z,100557
2018-05-01T20:46:44.117Z,100554
2018-05-01T20:49:13.509Z,100556
2018-05-01T20:51:42.764Z,100557
2018-05-01T20:54:11.175Z,100565
2018-05-01T20:56:41.273Z,100566
2018-05-01T20:59:09.607Z,100566
2018-05-01T21:01:38.095Z,100569
2018-05-01T21:04:06.701Z,100575
2018-05-01T21:06:35.120Z,100573
2018-05-01T21:09:04.348Z,100578
2018-05-01T21:11:32.787Z,100582
2018-05-01T21:14:02.456Z,100592
2018-05-01T21:16:31.062Z,100596
2018-05-01T21:18:59.493Z,100601
2018-05-01T21:21:28.935Z,100599
2018-05-01T21:23:57.333Z,100596
2018-05-01T21:26:25.883Z,100598
2018-05-01T21:28:54.239Z,100594
2018-05-01T21:31:22.569Z,100590
2018-05-01T21:33:50.866Z,100593
2018-05-01T21:36:19.688Z,100588
2018-05-01T21:38:47.985Z,100581
2018-05-01T21:41:16.416Z,100584
2018-05-01T21:43:44.754Z,100586
2018-05-01T21:46:14.312Z,100593
2018-05-01T21:48:43.478Z,100593
2018-05-01T21:51:11.881Z,100589
2018-05-01T21:53:40.365Z,100589
2018-05-01T21:56:08.878Z,100584
2018-05-01T21:58:37.189Z,100584
2018-05-01T22:01:05.727Z,100590
2018-05-01T22:03:34.102Z,100590
2018-05-01T22:06:02.491Z,100590
2018-05-01T22:08:30.823Z,100593
2018-05-01T22:10:59.248Z,100591
2018-05-01T22:13:27.557Z,100596
2018-05-01T22:15:57.464Z,100589
2018-05-01T22:18:25.931Z,100568
2018-05-01T22:20:54.236Z,100594
2018-05-01T22:23:22.631Z,100594
2018-05-01T22:25:51.060Z,100595
2018-05-01T22:28:19.440Z,100600
2018-05-01T22:30:47.961Z,100604
2018-05-01T22:33:16.464Z,100604
2018-05-01T22:35:44.986Z,100604
2018-05-01T22:38:13.309Z,100611
2018-05-01T22:40:41.651Z,100606
2018-05-01T22:43:09.974Z,100612
2018-05-01T22:45:38.360Z,100607
2018-05-01T22:48:06.694Z,100611
2018-05-01T22:50:35.041Z,100612
2018-05-01T22:53:03.385Z,100610
2018-05-01T22:55:31.707Z,100606
2018-05-01T22:58:00.021Z,100601
2018-05-01T23:00:28.406Z,100598
2018-05-01T23:02:56.751Z,100596
2018-05-01T23:05:25.246Z,100598
2018-05-01T23:07:53.688Z,100598
2018-05-01T23:10:22.057Z,100603
2018-05-01T23:12:51.116Z,100603
2018-05-01T23:15:19.416Z,100597
2018-05-01T23:17:48.665Z,100602
2018-05-01T23:20:16.965Z,100604
2018-05-01T23:22:45.274Z,100599
2018-05-01T23:25:14.465Z,100597
2018-05-01T23:27:44.457Z,100597
2018-05-01T23:30:12.738Z,100591
2018-05-01T23:32:42.136Z,100593
2018-05-01T23:35:10.507Z,100595
2018-05-01T23:37:38.931Z,100597
2018-05-01T23:40:08.090Z,100597
2018-05-01T23:42:36.421Z,100593
2018-05-01T23:45:04.893Z,100591
2018-05-01T23:47:34.233Z,100592
2018-05-01T23:50:02.552Z,100593
2018-05-01T23:52:31.669Z,100594
2018-05-01T23:55:00.023Z,100591
2018-05-01T23:57:29.301Z,100585
2018-05-01T23:59:57.623Z,100582
